Floyd Bennett Memorial Airport Glens Falls US
ICAO: KGFL
IATA: GFL
Category: Medium
Scheduled Services: No

Elevation: 328 ft
TransAlt. 18000 ft.

Airport Communications:
ALBANY APP/DEP:125
ASOS:119.25
BURLINGTON RDO:122.2
CTAF/UNICOM:123

KGFL Zoom In..

If you have problems with the map follow the link
https://www.worldairports.se/pages/airport.php?
ICAO=KGFL

Runways:

(A) RW 01 length 5000 ft width 150 ft
ILS 110.70 / hdg 12

(B) RW 12 length 3999 ft width 100 ft
---- / hdg 124

(C) RW 19 length 5000 ft width 150 ft
---- / hdg 192

(D) RW 30 length 3999 ft width 100 ft
---- / hdg 304

Location; KGFL
Day. 18 / Time. 01.53 Zulu
* Altimeter: 30.02
* Temperature: -07° c. -19.4°f.
* Wind from: 360° Speed 05 kn.
Dewpoint: -14° c.
Visibility: 10 Statute Miles.
Clouds: Overcast 9500 ft.

KGFL 180153Z AUTO 36005KT 10SM OVC095 M07/M14 A3002 RMK AO2 SLP177 T10671144


Wind From 360°
Speed 05 kn.

 
 
jpsmedia.com for Web Design worldairports.se 2019   terms of use